EUL weather

Caldwell Industrial Airport
Caldwell, Idaho, United States

Public forecast

Using degrees Fahrenheit for public forecast. Weather courtesy of forecast.io.

Current aviation weather report (METAR) for Caldwell Industrial Airport

Retrieved 2020/04/06 10:56 UTC (41 minutes ago):

KEUL 061056Z AUTO 00000KT 8SM CLR 05/04 A2969 RMK AO2 SLP053 T00500044

Aviation forecast (TAF) for Caldwell Industrial Airport

Retrieved 2020/04/06 06:33 UTC (5 hours ago):

TAF KEUL 060530Z 0606/0706 VRB05KT P6SM BKN070 FM062000 31006KT P6SM BKN100